Time;durP1;ratioP1;P1;durP2;ratioP2;P2;SDS_P1;SDS_P2;PMS_P1;PMS_P2;Temp;Humidity;BMP_temperature;BMP_pressure;BME280_temperature;BME280_humidity;BME280_pressure;Samples;Min_cycle;Max_cycle;Signal;HPM_P1;HPM_P2
2023/09/23 00:00:51;;;;;;;2.50;1.50;;;15.60;99.90;;;;;;5022370;28;20184;-78
2023/09/23 00:03:17;;;;;;;2.70;1.57;;;15.60;99.90;;;;;;5021626;28;20471;-79
2023/09/23 00:05:44;;;;;;;2.83;1.47;;;15.60;99.90;;;;;;5009538;28;20819;-76
2023/09/23 00:08:10;;;;;;;2.20;1.43;;;15.60;99.90;;;;;;5002668;28;20505;-77
2023/09/23 00:10:35;;;;;;;4.03;1.40;;;15.60;99.90;;;;;;5021048;28;20427;-78
2023/09/23 00:13:01;;;;;;;2.70;1.60;;;15.60;99.90;;;;;;5003283;28;20200;-78
2023/09/23 00:15:27;;;;;;;2.70;1.90;;;15.70;99.90;;;;;;5019563;28;20184;-80
2023/09/23 00:17:55;;;;;;;2.33;1.60;;;15.70;99.90;;;;;;5020045;28;20449;-77
2023/09/23 00:20:22;;;;;;;4.57;1.53;;;15.70;99.90;;;;;;5019109;28;20184;-77
2023/09/23 00:22:48;;;;;;;3.47;1.60;;;15.70;99.90;;;;;;5026895;28;20469;-77
2023/09/23 00:25:18;;;;;;;2.83;1.60;;;15.70;99.90;;;;;;5032609;28;20446;-77
2023/09/23 00:27:44;;;;;;;2.60;1.50;;;15.70;99.90;;;;;;5021815;28;20510;-79
2023/09/23 00:30:12;;;;;;;2.67;1.60;;;15.70;99.90;;;;;;5014850;28;20971;-78
2023/09/23 00:32:39;;;;;;;2.10;1.43;;;15.60;99.90;;;;;;5020467;28;20497;-78
2023/09/23 00:35:06;;;;;;;2.50;1.70;;;15.70;99.90;;;;;;5003851;28;20740;-76
2023/09/23 00:37:32;;;;;;;3.50;1.60;;;15.70;99.90;;;;;;5003086;28;20883;-78
2023/09/23 00:39:58;;;;;;;2.00;1.40;;;15.70;99.90;;;;;;4997765;28;20447;-78
2023/09/23 00:42:24;;;;;;;2.53;2.00;;;15.70;99.90;;;;;;4999175;28;20478;-77
2023/09/23 00:44:50;;;;;;;2.10;1.30;;;15.70;99.90;;;;;;5018958;28;20279;-77
2023/09/23 00:47:16;;;;;;;2.10;1.40;;;15.60;99.90;;;;;;5034207;28;20239;-77
2023/09/23 00:49:43;;;;;;;2.93;1.70;;;15.60;99.90;;;;;;5016378;28;20853;-78
2023/09/23 00:52:09;;;;;;;1.90;1.37;;;15.50;99.90;;;;;;5014974;28;20470;-79
2023/09/23 00:54:36;;;;;;;3.10;1.60;;;15.50;99.90;;;;;;5023187;28;20419;-78
2023/09/23 00:57:06;;;;;;;3.00;1.63;;;15.50;99.90;;;;;;5037021;28;20415;-79
2023/09/23 00:59:37;;;;;;;2.33;1.60;;;15.50;99.90;;;;;;5022665;28;20463;-79
2023/09/23 01:02:04;;;;;;;2.27;1.50;;;15.50;99.90;;;;;;5023008;28;20529;-79
2023/09/23 01:04:31;;;;;;;2.30;1.50;;;15.40;99.90;;;;;;5016472;28;20958;-78
2023/09/23 01:06:59;;;;;;;2.20;1.50;;;15.30;99.90;;;;;;5036102;28;20427;-78
2023/09/23 01:09:25;;;;;;;6.10;1.77;;;15.30;99.90;;;;;;5016634;28;20769;-77
2023/09/23 01:11:52;;;;;;;1.90;1.30;;;15.30;99.90;;;;;;5019255;28;20422;-78
2023/09/23 01:14:22;;;;;;;2.10;1.40;;;15.40;99.90;;;;;;5032140;28;20447;-78
2023/09/23 01:16:51;;;;;;;4.30;1.43;;;15.40;99.90;;;;;;5022871;28;20528;-78
2023/09/23 01:19:20;;;;;;;2.23;1.60;;;15.40;99.90;;;;;;5003440;28;20451;-79
2023/09/23 01:21:49;;;;;;;2.70;1.80;;;15.40;99.90;;;;;;5004153;28;20463;-78
2023/09/23 01:24:17;;;;;;;2.70;1.70;;;15.40;99.90;;;;;;5016158;28;20463;-78
2023/09/23 01:26:51;;;;;;;3.90;1.70;;;15.40;99.90;;;;;;5018565;28;20439;-78
2023/09/23 01:29:22;;;;;;;2.10;1.50;;;15.40;99.90;;;;;;5017978;28;20504;-78
2023/09/23 01:32:10;;;;;;;2.83;1.53;;;15.30;99.90;;;;;;5015031;28;20449;-79
2023/09/23 01:34:36;;;;;;;2.83;2.10;;;15.10;99.90;;;;;;5020657;28;20432;-79
2023/09/23 01:37:01;;;;;;;2.67;1.57;;;15.20;99.90;;;;;;5019205;28;20439;-79
2023/09/23 01:39:27;;;;;;;1.80;1.20;;;15.10;99.90;;;;;;5020438;28;20191;-79
2023/09/23 01:41:54;;;;;;;2.33;1.63;;;15.10;99.90;;;;;;5031017;28;20709;-79
2023/09/23 01:44:20;;;;;;;2.03;1.53;;;15.00;99.90;;;;;;5049000;28;20211;-78
2023/09/23 01:46:46;;;;;;;2.40;1.47;;;15.00;99.90;;;;;;5024358;28;20473;-78
2023/09/23 01:49:12;;;;;;;3.10;1.50;;;15.00;99.90;;;;;;5019953;28;20191;-78
2023/09/23 01:51:38;;;;;;;2.57;1.40;;;15.10;99.90;;;;;;5017909;28;20435;-78
2023/09/23 01:54:04;;;;;;;8.13;2.30;;;15.00;99.90;;;;;;5022458;28;20223;-79
2023/09/23 01:56:31;;;;;;;2.63;1.47;;;15.00;99.90;;;;;;5014834;28;20469;-78
2023/09/23 01:58:57;;;;;;;3.43;1.50;;;15.00;99.90;;;;;;5015616;28;20488;-78
2023/09/23 02:01:22;;;;;;;6.40;1.70;;;15.00;99.90;;;;;;5017017;28;20467;-79
2023/09/23 02:03:49;;;;;;;2.30;1.30;;;15.00;99.90;;;;;;5020037;28;20224;-78
2023/09/23 02:06:14;;;;;;;3.33;1.67;;;14.90;99.90;;;;;;5014234;28;20678;-78
2023/09/23 02:08:40;;;;;;;1.90;1.37;;;14.90;99.90;;;;;;5021634;28;20518;-78
2023/09/23 02:11:06;;;;;;;2.73;1.50;;;14.90;99.90;;;;;;5021350;28;21933;-78
2023/09/23 02:13:36;;;;;;;2.00;1.50;;;15.00;99.90;;;;;;5020548;28;20705;-79
2023/09/23 02:16:04;;;;;;;2.77;1.60;;;15.00;99.90;;;;;;5022710;28;20666;-79
2023/09/23 02:18:30;;;;;;;2.77;1.67;;;14.90;99.90;;;;;;5017434;28;20419;-78
2023/09/23 02:20:56;;;;;;;1.80;1.30;;;14.80;99.90;;;;;;5019534;28;20450;-78
2023/09/23 02:23:22;;;;;;;3.10;1.90;;;14.80;99.90;;;;;;4997805;28;20291;-79
2023/09/23 02:25:50;;;;;;;3.20;1.60;;;14.80;99.90;;;;;;5032955;28;20488;-79
2023/09/23 02:28:15;;;;;;;2.43;1.53;;;14.80;99.90;;;;;;5016486;28;20422;-78
2023/09/23 02:30:42;;;;;;;3.00;1.80;;;14.70;99.90;;;;;;5016273;28;20922;-79
2023/09/23 02:33:08;;;;;;;2.73;1.60;;;14.70;99.90;;;;;;5017847;28;20216;-80
2023/09/23 02:35:34;;;;;;;2.10;1.30;;;14.70;99.90;;;;;;5027469;28;20423;-78
2023/09/23 02:38:00;;;;;;;2.27;1.60;;;14.70;99.90;;;;;;5016459;28;20954;-79
2023/09/23 02:40:27;;;;;;;2.17;1.60;;;14.50;99.90;;;;;;5018463;28;20288;-78
2023/09/23 02:42:53;;;;;;;2.27;1.50;;;14.60;99.90;;;;;;5016402;28;20557;-78
2023/09/23 02:45:20;;;;;;;2.83;1.70;;;14.60;99.90;;;;;;5029152;28;20188;-78
2023/09/23 02:47:46;;;;;;;3.47;1.80;;;14.50;99.90;;;;;;5016364;28;20427;-78
2023/09/23 02:50:13;;;;;;;2.70;1.60;;;14.50;99.90;;;;;;4996072;28;20422;-78
2023/09/23 02:52:44;;;;;;;2.90;1.73;;;14.60;99.90;;;;;;5018645;28;20511;-79
2023/09/23 02:55:12;;;;;;;2.40;1.60;;;14.60;99.90;;;;;;4999572;28;20427;-78
2023/09/23 02:57:45;;;;;;;4.10;1.90;;;14.50;99.90;;;;;;5023028;28;20514;-79
2023/09/23 03:00:19;;;;;;;2.37;1.60;;;14.50;99.90;;;;;;5024602;28;20419;-78
2023/09/23 03:02:56;;;;;;;3.80;1.80;;;14.50;99.90;;;;;;5022218;28;20476;-78
2023/09/23 03:05:29;;;;;;;3.23;1.73;;;14.50;99.90;;;;;;5015851;28;20663;-78
2023/09/23 03:07:58;;;;;;;4.43;1.83;;;14.40;99.90;;;;;;5021375;28;20509;-78
2023/09/23 03:10:32;;;;;;;4.13;1.60;;;14.40;99.90;;;;;;5000758;28;20457;-78
2023/09/23 03:13:07;;;;;;;9.33;2.20;;;14.40;99.90;;;;;;5022968;28;20455;-77
2023/09/23 03:15:44;;;;;;;5.27;3.27;;;14.30;99.90;;;;;;5017601;28;22078;-77
2023/09/23 03:18:11;;;;;;;2.73;1.60;;;14.20;99.90;;;;;;5020487;28;20488;-77
2023/09/23 03:20:37;;;;;;;2.23;1.43;;;14.20;99.90;;;;;;5019025;28;20486;-77
2023/09/23 03:23:04;;;;;;;3.60;1.90;;;14.20;99.90;;;;;;5021976;28;20475;-77
2023/09/23 03:25:30;;;;;;;6.40;2.10;;;14.10;99.90;;;;;;5018572;28;20530;-77
2023/09/23 03:27:57;;;;;;;2.73;1.70;;;14.10;99.90;;;;;;5024004;28;20445;-78
2023/09/23 03:30:23;;;;;;;2.30;1.50;;;14.00;99.90;;;;;;5019690;28;20470;-80
2023/09/23 03:32:49;;;;;;;2.63;1.67;;;13.90;99.90;;;;;;5036902;28;20493;-77
2023/09/23 03:35:20;;;;;;;2.77;1.90;;;13.90;99.90;;;;;;5019106;28;20276;-79
2023/09/23 03:37:50;;;;;;;3.50;1.40;;;13.90;99.90;;;;;;5001010;28;21165;-77
2023/09/23 03:40:21;;;;;;;2.53;1.57;;;14.00;99.90;;;;;;5018136;28;20425;-77
2023/09/23 03:42:48;;;;;;;2.70;1.70;;;14.00;99.90;;;;;;5020911;28;20549;-79
2023/09/23 03:45:15;;;;;;;1.93;1.27;;;14.10;99.90;;;;;;5022458;28;20432;-80
2023/09/23 03:47:40;;;;;;;2.60;1.67;;;14.20;99.90;;;;;;5037158;28;20427;-79
2023/09/23 03:50:07;;;;;;;3.90;2.23;;;14.20;99.90;;;;;;5019734;28;20431;-80
2023/09/23 03:52:33;;;;;;;2.00;1.40;;;14.20;99.90;;;;;;5022372;28;20211;-80
2023/09/23 03:54:59;;;;;;;3.47;1.83;;;14.10;99.90;;;;;;5027490;28;20442;-81
2023/09/23 03:57:25;;;;;;;2.40;1.60;;;14.10;99.90;;;;;;5020219;28;20435;-81
2023/09/23 03:59:50;;;;;;;2.30;1.40;;;14.20;99.90;;;;;;5009665;28;20191;-81
2023/09/23 04:02:16;;;;;;;3.37;2.00;;;14.30;99.90;;;;;;5025176;28;20211;-81
2023/09/23 04:04:42;;;;;;;3.63;1.80;;;14.30;99.90;;;;;;5027379;28;20191;-81
2023/09/23 04:07:08;;;;;;;2.20;1.40;;;14.30;99.90;;;;;;5023728;28;20188;-81
2023/09/23 04:09:34;;;;;;;2.53;1.40;;;14.30;99.90;;;;;;5026657;28;20435;-80
2023/09/23 04:12:03;;;;;;;2.60;1.50;;;14.30;99.90;;;;;;5026083;28;20192;-81
2023/09/23 04:14:29;;;;;;;1.80;1.37;;;14.30;99.90;;;;;;5026341;28;20189;-81
2023/09/23 04:16:55;;;;;;;4.33;1.70;;;14.30;99.90;;;;;;5030006;28;20438;-81
2023/09/23 04:19:20;;;;;;;2.53;1.80;;;14.30;99.90;;;;;;5028368;28;20197;-80
2023/09/23 04:21:46;;;;;;;3.60;1.60;;;14.30;99.90;;;;;;5025352;28;20615;-79
2023/09/23 04:24:11;;;;;;;2.80;1.33;;;14.30;99.90;;;;;;5028261;28;20814;-80
2023/09/23 04:26:37;;;;;;;4.43;1.70;;;14.30;99.90;;;;;;5040038;28;20196;-83
2023/09/23 04:29:03;;;;;;;13.63;2.00;;;14.30;99.90;;;;;;5023830;28;20189;-81
2023/09/23 04:31:28;;;;;;;3.17;1.63;;;14.30;99.90;;;;;;5041031;28;20280;-81
2023/09/23 04:33:54;;;;;;;2.20;1.30;;;14.30;99.90;;;;;;5055506;28;20478;-82
2023/09/23 04:36:21;;;;;;;3.73;1.90;;;14.30;99.90;;;;;;5055762;28;20193;-82
2023/09/23 04:38:47;;;;;;;2.87;1.70;;;14.30;99.90;;;;;;5036976;28;20177;-81
2023/09/23 04:41:13;;;;;;;2.27;1.60;;;14.30;99.90;;;;;;5035594;28;20423;-81
2023/09/23 04:43:39;;;;;;;3.90;1.90;;;14.30;99.90;;;;;;5009035;28;20465;-81
2023/09/23 04:46:06;;;;;;;2.57;1.70;;;14.30;99.90;;;;;;5038873;28;20184;-80
2023/09/23 04:48:31;;;;;;;2.77;1.97;;;14.20;99.90;;;;;;5036957;28;20431;-81
2023/09/23 04:50:57;;;;;;;2.57;1.40;;;14.20;99.90;;;;;;5041192;28;20450;-82
2023/09/23 04:53:23;;;;;;;2.40;1.60;;;14.20;99.90;;;;;;5038573;28;20198;-81
2023/09/23 04:55:48;;;;;;;5.70;1.80;;;14.30;99.90;;;;;;5041576;28;20199;-82
2023/09/23 04:58:14;;;;;;;2.63;1.50;;;14.20;99.90;;;;;;5040624;28;20180;-81
2023/09/23 05:00:39;;;;;;;2.20;1.70;;;14.10;99.90;;;;;;5039960;28;20184;-81
2023/09/23 05:03:06;;;;;;;3.30;1.87;;;14.10;99.90;;;;;;5038213;28;20255;-82
2023/09/23 05:05:32;;;;;;;2.57;1.40;;;14.00;99.90;;;;;;5043340;28;20165;-82
2023/09/23 05:07:59;;;;;;;2.20;1.60;;;14.00;99.90;;;;;;5043196;28;20426;-82
2023/09/23 05:10:26;;;;;;;5.63;1.60;;;14.00;99.90;;;;;;5038612;28;20415;-83
2023/09/23 05:12:56;;;;;;;3.20;2.10;;;14.00;99.90;;;;;;5051630;28;20458;-82
2023/09/23 05:15:24;;;;;;;4.87;1.60;;;13.90;99.90;;;;;;5023801;28;20415;-79
2023/09/23 05:17:50;;;;;;;2.00;1.40;;;13.80;99.90;;;;;;5016585;28;20534;-79
2023/09/23 05:20:25;;;;;;;2.50;1.70;;;13.90;99.90;;;;;;5018983;28;20475;-79
2023/09/23 05:22:51;;;;;;;4.60;1.40;;;13.90;99.90;;;;;;5018991;28;20472;-80
2023/09/23 05:25:17;;;;;;;2.40;1.37;;;13.90;99.90;;;;;;5022791;28;20419;-79
2023/09/23 05:27:43;;;;;;;2.80;1.50;;;14.00;99.90;;;;;;5022922;28;22608;-80
2023/09/23 05:30:10;;;;;;;3.30;1.67;;;14.10;99.90;;;;;;5001393;28;20518;-79
2023/09/23 05:32:39;;;;;;;3.30;1.60;;;14.10;99.90;;;;;;5016985;28;20217;-79
2023/09/23 05:35:10;;;;;;;2.87;1.60;;;14.10;99.90;;;;;;5022634;28;20463;-79
2023/09/23 05:37:37;;;;;;;2.50;1.80;;;14.00;99.90;;;;;;5022193;28;20533;-80
2023/09/23 05:42:48;;;;;;;5.23;2.00;;;14.10;99.90;;;;;;5014492;28;20477;-76
2023/09/23 05:45:14;;;;;;;3.73;2.23;;;14.20;99.90;;;;;;5020767;28;20431;-77
2023/09/23 05:47:45;;;;;;;2.83;1.87;;;14.10;99.90;;;;;;5015294;28;20426;-78
2023/09/23 05:50:10;;;;;;;3.10;2.27;;;14.00;99.90;;;;;;5018947;28;21027;-79
2023/09/23 05:52:36;;;;;;;2.43;1.60;;;14.00;99.90;;;;;;5017540;28;20447;-79
2023/09/23 05:55:04;;;;;;;3.27;2.00;;;14.10;99.90;;;;;;5015616;28;20193;-78
2023/09/23 05:57:30;;;;;;;2.20;1.60;;;14.10;99.90;;;;;;5019289;28;20196;-78
2023/09/23 05:59:56;;;;;;;4.03;2.20;;;14.00;99.90;;;;;;5020798;28;20438;-76
2023/09/23 06:02:21;;;;;;;2.83;1.90;;;14.10;99.90;;;;;;5003811;28;20459;-78
2023/09/23 06:04:48;;;;;;;4.63;2.17;;;14.10;99.90;;;;;;5018983;28;20189;-79
2023/09/23 06:07:13;;;;;;;3.60;1.50;;;14.10;99.90;;;;;;5026974;28;20191;-78
2023/09/23 06:09:43;;;;;;;3.10;1.80;;;14.20;99.90;;;;;;4999415;28;20432;-78
2023/09/23 06:12:09;;;;;;;3.10;2.00;;;14.00;99.90;;;;;;5019243;28;20192;-78
2023/09/23 06:14:34;;;;;;;4.60;1.87;;;14.00;99.90;;;;;;5013591;28;21097;-77
2023/09/23 06:17:01;;;;;;;2.60;1.70;;;14.00;99.90;;;;;;5020804;28;20177;-77
2023/09/23 06:19:27;;;;;;;2.90;1.90;;;14.10;99.90;;;;;;5018757;28;20215;-78
2023/09/23 06:21:54;;;;;;;3.20;1.70;;;14.20;99.90;;;;;;5020615;28;20977;-80
2023/09/23 06:24:20;;;;;;;3.13;1.60;;;14.20;99.90;;;;;;5002107;28;20452;-80
2023/09/23 06:26:46;;;;;;;3.07;1.60;;;14.20;99.90;;;;;;5023048;28;20480;-80
2023/09/23 06:29:14;;;;;;;3.03;1.80;;;14.10;99.90;;;;;;5004434;28;20506;-79
2023/09/23 06:31:43;;;;;;;2.57;1.67;;;14.10;99.90;;;;;;5037331;28;21111;-79
2023/09/23 06:34:08;;;;;;;4.27;1.70;;;14.10;99.90;;;;;;5007928;28;20467;-80
2023/09/23 06:36:34;;;;;;;2.90;2.00;;;14.10;99.90;;;;;;5023637;28;20431;-80
2023/09/23 06:39:00;;;;;;;2.50;1.70;;;14.10;99.90;;;;;;5026242;28;20193;-80
2023/09/23 06:41:26;;;;;;;2.40;1.60;;;14.20;99.90;;;;;;5004267;28;20223;-78
2023/09/23 06:43:52;;;;;;;3.70;1.77;;;14.30;99.90;;;;;;5025299;28;20286;-79
2023/09/23 06:46:17;;;;;;;3.67;1.63;;;14.30;99.90;;;;;;5020725;28;20181;-78
2023/09/23 06:48:43;;;;;;;3.27;1.73;;;14.30;99.90;;;;;;5023188;28;20407;-78
2023/09/23 06:51:10;;;;;;;3.50;1.90;;;14.30;99.90;;;;;;5021013;28;20607;-80
2023/09/23 06:53:35;;;;;;;6.53;1.60;;;14.30;99.90;;;;;;5021686;28;20283;-80
2023/09/23 06:56:01;;;;;;;7.07;2.40;;;14.50;99.90;;;;;;5026875;28;21024;-80
2023/09/23 06:58:27;;;;;;;3.00;1.90;;;14.40;99.90;;;;;;5030733;28;20599;-78
2023/09/23 07:00:54;;;;;;;2.60;1.80;;;14.50;99.90;;;;;;5028984;28;20180;-78
2023/09/23 07:03:19;;;;;;;3.73;2.00;;;14.50;99.90;;;;;;5028362;28;20209;-78
2023/09/23 07:05:45;;;;;;;6.23;2.60;;;14.50;99.90;;;;;;5026757;28;20430;-78
2023/09/23 07:08:11;;;;;;;3.60;1.80;;;14.40;99.90;;;;;;5007034;28;20276;-80
2023/09/23 07:10:39;;;;;;;2.83;2.07;;;14.40;99.90;;;;;;5033036;28;21014;-83
2023/09/23 07:13:05;;;;;;;2.23;1.83;;;14.50;99.90;;;;;;5040648;28;20454;-82
2023/09/23 07:15:35;;;;;;;6.63;1.90;;;14.60;99.90;;;;;;5026427;28;20446;-83
2023/09/23 07:18:01;;;;;;;3.67;2.47;;;14.60;99.90;;;;;;5039097;28;20419;-83
2023/09/23 07:20:27;;;;;;;7.70;1.90;;;14.60;99.90;;;;;;5032117;28;20423;-77
2023/09/23 07:22:52;;;;;;;3.23;2.03;;;14.60;99.90;;;;;;5019665;28;20224;-77
2023/09/23 07:25:18;;;;;;;3.43;1.97;;;14.60;99.90;;;;;;5020200;28;20219;-77
2023/09/23 07:27:44;;;;;;;2.37;1.70;;;14.60;99.90;;;;;;5020040;28;20216;-77
2023/09/23 07:30:10;;;;;;;3.63;1.93;;;14.60;99.90;;;;;;5018740;28;20693;-77
2023/09/23 07:32:35;;;;;;;5.80;2.20;;;14.80;99.90;;;;;;5000276;28;20687;-75
2023/09/23 07:35:01;;;;;;;2.80;1.60;;;14.80;99.90;;;;;;5019146;28;20482;-76
2023/09/23 07:37:26;;;;;;;2.40;1.50;;;14.80;99.90;;;;;;5015971;28;20185;-76
2023/09/23 07:39:52;;;;;;;3.00;1.90;;;14.80;99.90;;;;;;5021904;28;20189;-77
2023/09/23 07:42:18;;;;;;;2.80;1.90;;;14.90;99.90;;;;;;5028816;28;20227;-77
2023/09/23 07:44:43;;;;;;;4.80;2.30;;;14.90;99.90;;;;;;5021752;28;20182;-78
2023/09/23 07:47:09;;;;;;;4.13;2.10;;;15.00;99.90;;;;;;5026376;28;20188;-77
2023/09/23 07:49:35;;;;;;;4.60;1.90;;;15.10;99.90;;;;;;4988192;28;20181;-78
2023/09/23 07:52:00;;;;;;;2.90;1.90;;;15.10;99.90;;;;;;5021390;28;20238;-77
2023/09/23 07:54:26;;;;;;;4.00;1.97;;;15.00;99.90;;;;;;5018645;28;20477;-74
2023/09/23 07:56:52;;;;;;;4.20;1.77;;;15.10;99.90;;;;;;5020426;28;20192;-73
2023/09/23 07:59:17;;;;;;;4.63;1.97;;;15.00;99.90;;;;;;5024905;28;20197;-74
2023/09/23 08:01:43;;;;;;;2.70;1.67;;;15.20;99.90;;;;;;5026214;28;20539;-78
2023/09/23 08:04:09;;;;;;;4.87;2.30;;;15.30;99.90;;;;;;5023741;28;20215;-78
2023/09/23 08:06:34;;;;;;;3.80;1.60;;;15.20;99.90;;;;;;5025354;28;20216;-78
2023/09/23 08:09:00;;;;;;;2.67;1.77;;;15.30;99.90;;;;;;5028066;28;20184;-77
2023/09/23 08:11:26;;;;;;;3.27;1.80;;;15.40;99.90;;;;;;5024171;28;20193;-78
2023/09/23 08:13:53;;;;;;;3.70;2.53;;;15.40;99.90;;;;;;5028177;28;20283;-77
2023/09/23 08:16:18;;;;;;;3.07;1.90;;;15.40;99.90;;;;;;5033839;28;20472;-78
2023/09/23 08:18:44;;;;;;;3.67;2.10;;;15.50;99.90;;;;;;5024286;28;20835;-77
2023/09/23 08:21:11;;;;;;;2.10;1.50;;;15.60;99.90;;;;;;5012482;28;20889;-77
2023/09/23 08:23:37;;;;;;;4.60;2.00;;;15.70;99.90;;;;;;5006997;28;20215;-76
2023/09/23 08:26:04;;;;;;;2.23;1.93;;;15.80;99.90;;;;;;5020577;28;20415;-77
2023/09/23 08:28:30;;;;;;;2.33;1.70;;;15.80;99.90;;;;;;5026223;28;20177;-78
2023/09/23 08:30:56;;;;;;;3.77;2.10;;;15.80;99.90;;;;;;5028386;28;20472;-76
2023/09/23 08:33:22;;;;;;;2.83;1.80;;;15.80;99.90;;;;;;5036578;28;20537;-77
2023/09/23 08:35:48;;;;;;;3.00;2.00;;;15.90;99.90;;;;;;5018534;28;20195;-77
2023/09/23 08:38:14;;;;;;;3.03;1.80;;;15.80;99.90;;;;;;5037630;28;20446;-77
2023/09/23 08:40:43;;;;;;;2.90;1.80;;;15.90;99.90;;;;;;5035950;28;20434;-77
2023/09/23 08:43:09;;;;;;;2.63;1.83;;;15.80;99.90;;;;;;5020246;28;20484;-77
2023/09/23 08:45:44;;;;;;;4.37;2.30;;;16.00;99.90;;;;;;5035309;28;20416;-77
2023/09/23 08:48:11;;;;;;;3.00;1.93;;;16.00;99.90;;;;;;5029278;28;20180;-78
2023/09/23 08:50:46;;;;;;;5.10;2.10;;;16.10;99.90;;;;;;5030919;28;20407;-78
2023/09/23 08:53:14;;;;;;;2.87;1.87;;;16.00;99.90;;;;;;5033262;28;20512;-77
2023/09/23 08:55:42;;;;;;;2.40;1.60;;;16.10;99.90;;;;;;5041724;28;20432;-77
2023/09/23 08:58:07;;;;;;;6.07;2.10;;;16.20;99.90;;;;;;5027864;28;20938;-77
2023/09/23 09:00:33;;;;;;;3.20;1.63;;;16.30;99.90;;;;;;5019154;28;20466;-77
2023/09/23 09:02:59;;;;;;;3.43;1.57;;;16.30;99.90;;;;;;5005020;28;20959;-77
2023/09/23 09:05:36;;;;;;;2.50;1.73;;;16.40;99.90;;;;;;5004526;28;20423;-76
2023/09/23 09:08:02;;;;;;;3.93;2.10;;;16.40;99.90;;;;;;5017824;28;20172;-79
2023/09/23 09:10:28;;;;;;;3.30;1.70;;;16.40;99.90;;;;;;5023434;28;20453;-76
2023/09/23 09:12:54;;;;;;;2.10;1.70;;;16.50;99.90;;;;;;5025752;28;20434;-77
2023/09/23 09:15:21;;;;;;;2.80;1.53;;;16.40;99.90;;;;;;5022578;28;20284;-78
2023/09/23 09:17:47;;;;;;;3.70;1.97;;;16.50;99.90;;;;;;5028364;28;20422;-77
2023/09/23 09:20:13;;;;;;;3.70;2.00;;;16.60;99.90;;;;;;5009246;28;20451;-77
2023/09/23 09:22:39;;;;;;;4.07;1.60;;;16.70;99.90;;;;;;5011069;28;20225;-79
2023/09/23 09:25:07;;;;;;;4.03;1.90;;;16.70;99.90;;;;;;5024368;28;20184;-77
2023/09/23 09:27:35;;;;;;;8.00;1.80;;;16.70;99.90;;;;;;5022726;28;20439;-77
2023/09/23 09:30:00;;;;;;;2.63;1.90;;;16.80;99.90;;;;;;5021840;28;20479;-77
2023/09/23 09:32:29;;;;;;;6.43;2.00;;;16.90;99.90;;;;;;5024291;28;20487;-77
2023/09/23 09:35:00;;;;;;;2.40;1.70;;;16.90;99.90;;;;;;5018590;28;20209;-78
2023/09/23 09:37:27;;;;;;;3.13;1.80;;;16.90;99.90;;;;;;5026164;28;20432;-76
2023/09/23 09:39:57;;;;;;;6.13;2.20;;;17.00;99.90;;;;;;5027696;28;20449;-78
2023/09/23 09:42:30;;;;;;;4.10;2.10;;;17.10;99.90;;;;;;5026121;28;20473;-77
2023/09/23 09:45:00;;;;;;;7.37;2.10;;;17.10;99.90;;;;;;5024643;28;20481;-77
2023/09/23 09:47:29;;;;;;;3.80;1.93;;;17.20;99.90;;;;;;5022603;28;20419;-77
2023/09/23 09:49:55;;;;;;;3.27;2.00;;;17.20;99.90;;;;;;5013792;28;20464;-77
2023/09/23 09:52:26;;;;;;;3.80;2.10;;;17.40;99.90;;;;;;5027618;28;20442;-77
2023/09/23 09:54:57;;;;;;;2.87;1.70;;;17.40;99.90;;;;;;5028555;28;20668;-78
2023/09/23 09:57:25;;;;;;;2.77;1.70;;;17.50;99.90;;;;;;5029877;28;20490;-80
2023/09/23 09:59:51;;;;;;;5.00;2.13;;;17.50;99.90;;;;;;5030845;28;20898;-80
2023/09/23 10:02:18;;;;;;;3.77;2.40;;;17.60;99.90;;;;;;5030032;28;20462;-79
2023/09/23 10:04:49;;;;;;;3.27;2.00;;;17.70;99.90;;;;;;5030846;28;20498;-80
2023/09/23 10:07:16;;;;;;;2.83;2.10;;;17.70;99.90;;;;;;5025669;28;20442;-78
2023/09/23 10:09:55;;;;;;;4.03;2.23;;;17.80;99.90;;;;;;4992591;28;20449;-78
2023/09/23 10:12:29;;;;;;;7.50;3.00;;;17.80;99.90;;;;;;5023986;28;20488;-80
2023/09/23 10:14:56;;;;;;;6.37;1.97;;;17.80;99.90;;;;;;5030706;28;20419;-79
2023/09/23 10:17:31;;;;;;;2.83;2.00;;;17.80;99.90;;;;;;5026878;28;20527;-80
2023/09/23 10:19:57;;;;;;;3.87;2.20;;;17.90;99.90;;;;;;5028439;28;20434;-78
2023/09/23 10:22:23;;;;;;;3.97;2.10;;;17.90;99.90;;;;;;5021407;28;20464;-79
2023/09/23 10:24:59;;;;;;;3.43;1.63;;;17.90;99.90;;;;;;5022641;28;20455;-79
2023/09/23 10:27:25;;;;;;;2.20;1.60;;;18.00;99.90;;;;;;5023551;28;20421;-79
2023/09/23 10:29:51;;;;;;;3.50;1.87;;;18.10;99.90;;;;;;5023771;28;20850;-79
2023/09/23 10:32:17;;;;;;;2.83;1.80;;;18.10;99.90;;;;;;5006208;28;20431;-78
2023/09/23 10:34:55;;;;;;;4.43;1.77;;;18.10;99.90;;;;;;5006555;28;20188;-79
2023/09/23 10:37:29;;;;;;;4.00;1.97;;;18.20;99.90;;;;;;5038268;28;20968;-79
2023/09/23 10:39:56;;;;;;;3.30;1.90;;;18.20;99.90;;;;;;5040285;28;20422;-78
2023/09/23 10:42:22;;;;;;;3.63;1.90;;;18.30;99.90;;;;;;5001754;28;20516;-78
2023/09/23 10:44:48;;;;;;;3.20;1.90;;;18.30;99.90;;;;;;5017694;28;20431;-78
2023/09/23 10:47:14;;;;;;;3.50;1.80;;;18.20;99.90;;;;;;5020480;28;20419;-79
2023/09/23 10:49:39;;;;;;;3.00;1.80;;;18.30;99.90;;;;;;5024697;28;20268;-79
2023/09/23 10:52:05;;;;;;;4.50;2.00;;;18.30;99.90;;;;;;5026202;28;20525;-79
2023/09/23 10:54:31;;;;;;;3.13;1.90;;;18.30;99.90;;;;;;5008987;28;20208;-79
2023/09/23 10:56:58;;;;;;;3.80;2.00;;;18.40;99.90;;;;;;5024594;28;20192;-79
2023/09/23 10:59:23;;;;;;;2.97;1.90;;;18.50;99.90;;;;;;5026792;28;20172;-79
2023/09/23 11:01:49;;;;;;;2.47;1.90;;;18.60;99.90;;;;;;5022203;28;20484;-79
2023/09/23 11:04:16;;;;;;;2.53;1.87;;;18.70;99.90;;;;;;5026347;28;20205;-79
2023/09/23 11:06:42;;;;;;;2.80;2.13;;;18.80;99.90;;;;;;5022468;28;20624;-79
2023/09/23 11:09:07;;;;;;;2.93;1.73;;;18.90;99.90;;;;;;5023098;28;20481;-79
2023/09/23 11:11:35;;;;;;;4.23;2.00;;;18.90;99.90;;;;;;5038332;28;20200;-79
2023/09/23 11:14:00;;;;;;;3.27;1.90;;;18.90;99.90;;;;;;5021157;28;20611;-78
2023/09/23 11:16:26;;;;;;;2.20;1.80;;;18.80;99.90;;;;;;5021385;28;20478;-79
2023/09/23 11:18:55;;;;;;;3.43;2.00;;;18.60;99.90;;;;;;5022607;28;20172;-78
2023/09/23 11:21:21;;;;;;;3.80;2.20;;;18.60;99.90;;;;;;5017291;28;20283;-78
2023/09/23 11:23:56;;;;;;;3.33;2.13;;;18.60;99.90;;;;;;5001852;28;20592;-78
2023/09/23 11:26:23;;;;;;;2.43;1.73;;;18.80;99.90;;;;;;5021887;28;20176;-78
2023/09/23 11:28:48;;;;;;;3.77;1.87;;;18.80;99.90;;;;;;5024201;28;20428;-75
2023/09/23 11:31:14;;;;;;;2.50;1.87;;;18.80;99.90;;;;;;5018319;28;20932;-78
2023/09/23 11:33:39;;;;;;;3.90;2.10;;;19.00;99.90;;;;;;5021737;28;20212;-77
2023/09/23 11:36:05;;;;;;;3.27;2.10;;;19.00;99.90;;;;;;5025881;28;20191;-76
2023/09/23 11:38:31;;;;;;;2.23;1.93;;;19.10;99.90;;;;;;5024908;28;20188;-77
2023/09/23 11:40:56;;;;;;;3.20;2.03;;;19.20;99.90;;;;;;5031621;28;20216;-78
2023/09/23 11:43:22;;;;;;;2.23;1.70;;;19.30;99.90;;;;;;5023021;28;20209;-76
2023/09/23 11:45:48;;;;;;;3.00;2.30;;;19.30;99.90;;;;;;5023106;28;20276;-78
2023/09/23 11:48:14;;;;;;;4.73;2.47;;;19.50;99.90;;;;;;5024106;28;20169;-76
2023/09/23 11:50:39;;;;;;;6.27;2.30;;;19.60;99.90;;;;;;5022899;28;20938;-76
2023/09/23 11:53:05;;;;;;;4.67;2.00;;;19.70;99.90;;;;;;5021483;28;20200;-77
2023/09/23 11:55:32;;;;;;;6.23;2.00;;;19.60;99.90;;;;;;5021842;28;20195;-78
2023/09/23 11:57:58;;;;;;;4.83;2.23;;;19.50;99.90;;;;;;5035518;28;20288;-77
2023/09/23 12:00:25;;;;;;;3.37;2.30;;;19.60;99.90;;;;;;5017334;28;20515;-76
2023/09/23 12:02:50;;;;;;;3.90;2.37;;;20.10;99.90;;;;;;5019884;28;20598;-78
2023/09/23 12:05:16;;;;;;;2.40;1.80;;;20.70;99.90;;;;;;5021119;28;20518;-76
2023/09/23 12:07:45;;;;;;;4.27;2.33;;;21.00;99.90;;;;;;5023155;28;20200;-75
2023/09/23 12:10:13;;;;;;;2.63;2.00;;;21.00;99.90;;;;;;5025310;28;20181;-78
2023/09/23 12:12:39;;;;;;;3.50;2.00;;;20.90;99.90;;;;;;5022584;28;20442;-78
2023/09/23 12:15:08;;;;;;;3.73;2.33;;;20.80;99.90;;;;;;5022549;28;20477;-77
2023/09/23 12:17:34;;;;;;;2.30;2.03;;;20.80;99.90;;;;;;5025979;28;20458;-78
2023/09/23 12:20:00;;;;;;;3.90;2.77;;;20.80;99.90;;;;;;5025976;28;20423;-78
2023/09/23 12:22:26;;;;;;;3.80;2.03;;;20.70;99.90;;;;;;5024565;28;20455;-79
2023/09/23 12:24:52;;;;;;;2.57;2.23;;;20.70;99.90;;;;;;5021459;28;20184;-77
2023/09/23 12:27:19;;;;;;;3.83;2.20;;;20.70;99.90;;;;;;5005319;28;20578;-77
2023/09/23 12:29:45;;;;;;;2.43;2.00;;;20.80;99.90;;;;;;5027235;28;20760;-78
2023/09/23 12:32:11;;;;;;;4.57;2.30;;;20.80;99.90;;;;;;5023461;28;20465;-77
2023/09/23 12:34:37;;;;;;;4.80;2.13;;;20.80;99.90;;;;;;5021258;28;20184;-78
2023/09/23 12:37:04;;;;;;;2.80;1.93;;;21.10;99.90;;;;;;5028091;28;20411;-78
2023/09/23 12:39:29;;;;;;;2.83;2.17;;;21.20;99.90;;;;;;5007371;28;20200;-78
2023/09/23 12:41:55;;;;;;;3.33;2.30;;;21.20;99.90;;;;;;5007942;28;20509;-78
2023/09/23 12:44:21;;;;;;;3.43;2.00;;;21.40;99.90;;;;;;5022122;28;20200;-78
2023/09/23 12:46:47;;;;;;;3.50;2.37;;;21.60;99.90;;;;;;5022570;28;20201;-77
2023/09/23 12:49:12;;;;;;;5.60;2.30;;;21.60;99.90;;;;;;5021896;28;20259;-78